Time;durP1;ratioP1;P1;durP2;ratioP2;P2;SDS_P1;SDS_P2;PMS_P1;PMS_P2;Temp;Humidity;BMP_temperature;BMP_pressure;BME280_temperature;BME280_humidity;BME280_pressure;Samples;Min_cycle;Max_cycle;Signal;HPM_P1;HPM_P2
2021/07/20 00:00:22;;;;;;;7.60;4.28;;;;;;;;;;5095922;28;20100;-50
2021/07/20 00:02:49;;;;;;;6.47;4.00;;;;;;;;;;5096073;28;20024;-50
2021/07/20 00:05:21;;;;;;;7.15;4.15;;;;;;;;;;5095854;28;20027;-50
2021/07/20 00:07:47;;;;;;;8.75;4.60;;;;;;;;;;5073294;28;20033;-50
2021/07/20 00:10:14;;;;;;;7.88;3.80;;;;;;;;;;5089571;28;20051;-49
2021/07/20 00:12:40;;;;;;;7.28;4.03;;;;;;;;;;5081136;28;20107;-50
2021/07/20 00:15:08;;;;;;;7.63;4.40;;;;;;;;;;5077317;28;20056;-53
2021/07/20 00:17:34;;;;;;;6.00;3.97;;;;;;;;;;5087746;28;20115;-51
2021/07/20 00:20:00;;;;;;;7.00;3.90;;;;;;;;;;5094131;28;20020;-50
2021/07/20 00:22:26;;;;;;;5.30;3.40;;;;;;;;;;5087241;28;20108;-51
2021/07/20 00:24:52;;;;;;;8.10;4.00;;;;;;;;;;5094173;28;20073;-50
2021/07/20 00:27:18;;;;;;;5.78;3.78;;;;;;;;;;5090761;28;20103;-50
2021/07/20 00:29:44;;;;;;;9.35;4.22;;;;;;;;;;5093996;28;20049;-49
2021/07/20 00:32:10;;;;;;;5.57;3.72;;;;;;;;;;5095489;28;20463;-49
2021/07/20 00:34:38;;;;;;;9.10;3.97;;;;;;;;;;5095117;28;20433;-50
2021/07/20 00:37:04;;;;;;;8.45;4.03;;;;;;;;;;5093706;28;20143;-50
2021/07/20 00:39:30;;;;;;;8.00;4.28;;;;;;;;;;5091583;28;20028;-49
2021/07/20 00:41:56;;;;;;;5.50;3.72;;;;;;;;;;5095464;28;20035;-49
2021/07/20 00:44:22;;;;;;;5.75;3.53;;;;;;;;;;5080732;28;20456;-50
2021/07/20 00:46:48;;;;;;;7.32;4.30;;;;;;;;;;5095000;28;20104;-49
2021/07/20 00:49:14;;;;;;;5.00;3.75;;;;;;;;;;5094480;28;20024;-51
2021/07/20 00:51:41;;;;;;;6.93;3.88;;;;;;;;;;5094769;28;20046;-52
2021/07/20 00:54:07;;;;;;;7.32;3.80;;;;;;;;;;5095425;28;20055;-50
2021/07/20 00:56:33;;;;;;;7.13;4.38;;;;;;;;;;5094116;28;20104;-52
2021/07/20 00:59:01;;;;;;;7.63;3.80;;;;;;;;;;5093840;28;20043;-50
2021/07/20 01:01:27;;;;;;;6.15;3.97;;;;;;;;;;5094634;28;20119;-51
2021/07/20 01:03:53;;;;;;;7.07;3.92;;;;;;;;;;5094626;28;20129;-50
2021/07/20 01:06:20;;;;;;;7.25;4.18;;;;;;;;;;5090430;28;20031;-52
2021/07/20 01:08:47;;;;;;;4.93;3.85;;;;;;;;;;5067375;28;20048;-50
2021/07/20 01:11:13;;;;;;;7.05;4.10;;;;;;;;;;5081771;28;20028;-49
2021/07/20 01:13:39;;;;;;;8.32;3.95;;;;;;;;;;5075215;28;20178;-49
2021/07/20 01:16:05;;;;;;;5.18;3.63;;;;;;;;;;5087662;28;20550;-49
2021/07/20 01:18:31;;;;;;;8.95;3.88;;;;;;;;;;5093828;28;20077;-49
2021/07/20 01:20:58;;;;;;;6.57;4.15;;;;;;;;;;5094637;28;20459;-49
2021/07/20 01:23:30;;;;;;;6.57;3.40;;;;;;;;;;5085084;28;20735;-51
2021/07/20 01:25:57;;;;;;;6.30;4.40;;;;;;;;;;5094403;28;20021;-52
2021/07/20 01:28:24;;;;;;;7.20;3.58;;;;;;;;;;5093844;28;20419;-51
2021/07/20 01:30:52;;;;;;;5.18;3.60;;;;;;;;;;5088337;28;20032;-49
2021/07/20 01:33:18;;;;;;;6.35;4.05;;;;;;;;;;5077252;28;20028;-49
2021/07/20 01:35:47;;;;;;;6.40;3.63;;;;;;;;;;5083407;28;20109;-50
2021/07/20 01:38:14;;;;;;;11.38;4.00;;;;;;;;;;5093642;28;20024;-49
2021/07/20 01:40:40;;;;;;;7.25;3.58;;;;;;;;;;5091366;28;20036;-51
2021/07/20 01:43:07;;;;;;;6.75;3.75;;;;;;;;;;5093929;28;20021;-49
2021/07/20 01:45:35;;;;;;;7.65;3.63;;;;;;;;;;5093849;28;20053;-49
2021/07/20 01:48:02;;;;;;;6.72;4.07;;;;;;;;;;5088653;28;20402;-49
2021/07/20 01:50:29;;;;;;;6.18;3.78;;;;;;;;;;5094002;28;20103;-50
2021/07/20 01:52:55;;;;;;;8.18;3.60;;;;;;;;;;5093801;28;20119;-49
2021/07/20 01:55:24;;;;;;;7.45;3.42;;;;;;;;;;5093576;28;20028;-50
2021/07/20 01:57:50;;;;;;;6.63;3.90;;;;;;;;;;5092992;28;20027;-52
2021/07/20 02:00:18;;;;;;;6.30;3.90;;;;;;;;;;5093605;28;20468;-49
2021/07/20 02:03:10;;;;;;;6.50;3.88;;;;;;;;;;5093672;28;20070;-50
2021/07/20 02:08:27;;;;;;;9.10;3.80;;;;;;;;;;5065421;28;20547;-50
2021/07/20 02:10:54;;;;;;;7.20;4.10;;;;;;;;;;5079794;28;20036;-50
2021/07/20 02:13:21;;;;;;;6.30;4.00;;;;;;;;;;5076577;28;20168;-49
2021/07/20 02:15:48;;;;;;;5.18;3.55;;;;;;;;;;5073864;28;20107;-50
2021/07/20 02:18:15;;;;;;;4.45;3.17;;;;;;;;;;5092895;28;20135;-51
2021/07/20 02:20:42;;;;;;;7.65;3.35;;;;;;;;;;5093389;28;20141;-49
2021/07/20 02:23:08;;;;;;;5.07;3.35;;;;;;;;;;5083134;28;20034;-54
2021/07/20 02:25:34;;;;;;;6.57;4.35;;;;;;;;;;5092924;28;20027;-55
2021/07/20 02:28:02;;;;;;;5.35;3.40;;;;;;;;;;5092772;28;20035;-52
2021/07/20 02:30:28;;;;;;;7.13;4.43;;;;;;;;;;5093351;28;20030;-52
2021/07/20 02:32:54;;;;;;;7.15;3.60;;;;;;;;;;5093101;28;20764;-51
2021/07/20 02:35:22;;;;;;;5.28;3.88;;;;;;;;;;5087286;28;20107;-55
2021/07/20 02:37:49;;;;;;;5.00;3.50;;;;;;;;;;5089586;28;20032;-49
2021/07/20 02:40:16;;;;;;;4.72;3.40;;;;;;;;;;5089584;28;20099;-49
2021/07/20 02:42:42;;;;;;;10.25;4.28;;;;;;;;;;5087152;28;20040;-49
2021/07/20 02:45:08;;;;;;;5.60;3.53;;;;;;;;;;5085507;28;20031;-49
2021/07/20 02:47:35;;;;;;;5.68;3.80;;;;;;;;;;5092764;28;20107;-50
2021/07/20 02:50:04;;;;;;;4.80;3.50;;;;;;;;;;5092672;28;20036;-49
2021/07/20 02:52:30;;;;;;;7.18;3.20;;;;;;;;;;5092447;28;20024;-49
2021/07/20 02:54:57;;;;;;;4.65;3.25;;;;;;;;;;5092774;28;20089;-50
2021/07/20 02:57:23;;;;;;;6.22;3.30;;;;;;;;;;5092774;28;20382;-49
2021/07/20 02:59:49;;;;;;;4.65;3.50;;;;;;;;;;5089280;28;20475;-52
2021/07/20 03:02:15;;;;;;;4.38;3.25;;;;;;;;;;5092500;28;20032;-51
2021/07/20 03:04:41;;;;;;;6.40;3.38;;;;;;;;;;5092255;28;20024;-51
2021/07/20 03:07:11;;;;;;;6.55;3.90;;;;;;;;;;5080968;28;20021;-52
2021/07/20 03:09:38;;;;;;;5.97;3.50;;;;;;;;;;5078110;28;20050;-51
2021/07/20 03:12:08;;;;;;;6.80;4.10;;;;;;;;;;5080946;28;20031;-51
2021/07/20 03:14:34;;;;;;;5.30;3.42;;;;;;;;;;5068123;28;20086;-49
2021/07/20 03:17:00;;;;;;;7.57;3.83;;;;;;;;;;5090892;28;20020;-50
2021/07/20 03:19:28;;;;;;;7.72;4.10;;;;;;;;;;5091212;28;20020;-49
2021/07/20 03:21:56;;;;;;;7.07;4.10;;;;;;;;;;5067147;28;20021;-50
2021/07/20 03:24:23;;;;;;;7.00;3.72;;;;;;;;;;5080863;28;20043;-49
2021/07/20 03:26:49;;;;;;;6.50;3.88;;;;;;;;;;5092465;28;20730;-49
2021/07/20 03:29:16;;;;;;;9.80;3.50;;;;;;;;;;5091807;28;20099;-50
2021/07/20 03:31:42;;;;;;;6.40;3.50;;;;;;;;;;5092331;28;20107;-50
2021/07/20 03:34:08;;;;;;;4.45;3.47;;;;;;;;;;5092110;28;20034;-49
2021/07/20 03:36:35;;;;;;;6.13;3.88;;;;;;;;;;5089903;28;20069;-49
2021/07/20 03:39:02;;;;;;;5.43;4.30;;;;;;;;;;5088046;28;20091;-49
2021/07/20 03:41:28;;;;;;;6.20;3.85;;;;;;;;;;5092431;28;20131;-49
2021/07/20 03:43:56;;;;;;;9.82;4.07;;;;;;;;;;5078429;28;20028;-49
2021/07/20 03:46:22;;;;;;;8.35;3.70;;;;;;;;;;5091571;28;20024;-50
2021/07/20 03:48:48;;;;;;;6.93;3.47;;;;;;;;;;5090430;28;20487;-49
2021/07/20 03:51:18;;;;;;;9.23;3.95;;;;;;;;;;5092033;28;20103;-50
2021/07/20 03:53:45;;;;;;;5.05;3.47;;;;;;;;;;5091828;28;20141;-49
2021/07/20 03:56:11;;;;;;;6.72;3.55;;;;;;;;;;5091858;28;20065;-49
2021/07/20 03:58:39;;;;;;;7.85;3.83;;;;;;;;;;5091229;28;20436;-49
2021/07/20 04:01:06;;;;;;;4.95;3.65;;;;;;;;;;5091846;28;20055;-50
2021/07/20 04:03:33;;;;;;;6.45;4.50;;;;;;;;;;5091862;28;20099;-49
2021/07/20 04:06:01;;;;;;;8.10;3.58;;;;;;;;;;5083146;28;20104;-49
2021/07/20 04:08:27;;;;;;;4.82;3.35;;;;;;;;;;5064802;28;20124;-50
2021/07/20 04:10:54;;;;;;;5.72;3.55;;;;;;;;;;5084637;28;20027;-50
2021/07/20 04:13:21;;;;;;;5.40;3.38;;;;;;;;;;5072279;28;20024;-49
2021/07/20 04:15:52;;;;;;;4.63;3.15;;;;;;;;;;5082288;28;20112;-50
2021/07/20 04:18:18;;;;;;;8.77;3.45;;;;;;;;;;5091451;28;20039;-49
2021/07/20 04:20:45;;;;;;;6.63;3.85;;;;;;;;;;5087674;28;20036;-51
2021/07/20 04:23:13;;;;;;;7.22;3.90;;;;;;;;;;5080594;28;20016;-49
2021/07/20 04:25:43;;;;;;;4.90;3.42;;;;;;;;;;5091655;28;20623;-50
2021/07/20 04:28:09;;;;;;;8.02;3.90;;;;;;;;;;5091344;28;20039;-49
2021/07/20 04:30:37;;;;;;;7.40;3.63;;;;;;;;;;5091700;28;20107;-49
2021/07/20 04:33:03;;;;;;;7.57;3.88;;;;;;;;;;5084354;28;20507;-49
2021/07/20 04:35:30;;;;;;;8.40;4.25;;;;;;;;;;5093605;28;20112;-49
2021/07/20 04:37:56;;;;;;;6.88;3.78;;;;;;;;;;5094860;28;20040;-50
2021/07/20 04:40:22;;;;;;;10.50;4.30;;;;;;;;;;5092080;28;20099;-50
2021/07/20 04:42:49;;;;;;;6.88;3.83;;;;;;;;;;5088610;28;20056;-49
2021/07/20 04:45:16;;;;;;;5.85;3.33;;;;;;;;;;5088866;28;20402;-51
2021/07/20 04:47:43;;;;;;;7.13;3.97;;;;;;;;;;5094820;28;20024;-49
2021/07/20 04:50:10;;;;;;;5.93;3.88;;;;;;;;;;5080534;28;20081;-49
2021/07/20 04:52:36;;;;;;;5.30;4.00;;;;;;;;;;5095145;28;20023;-50
2021/07/20 04:55:03;;;;;;;13.13;3.97;;;;;;;;;;5094767;28;20107;-49
2021/07/20 04:57:30;;;;;;;6.35;3.40;;;;;;;;;;5094953;28;20055;-49
2021/07/20 04:59:56;;;;;;;5.07;3.15;;;;;;;;;;5094754;28;20483;-50
2021/07/20 05:02:22;;;;;;;7.03;3.80;;;;;;;;;;5094981;28;20410;-50
2021/07/20 05:04:49;;;;;;;11.63;3.50;;;;;;;;;;5067361;28;20151;-51
2021/07/20 05:07:17;;;;;;;6.47;3.53;;;;;;;;;;5081341;28;20104;-49
2021/07/20 05:09:43;;;;;;;6.13;3.70;;;;;;;;;;5081409;28;20058;-50
2021/07/20 05:12:11;;;;;;;7.32;3.80;;;;;;;;;;5082462;28;20028;-50
2021/07/20 05:14:37;;;;;;;7.88;3.58;;;;;;;;;;5070870;28;20024;-50
2021/07/20 05:17:04;;;;;;;6.80;3.70;;;;;;;;;;5094460;28;20032;-50
2021/07/20 05:19:31;;;;;;;7.28;3.67;;;;;;;;;;5079506;28;20031;-49
2021/07/20 05:21:57;;;;;;;5.38;3.53;;;;;;;;;;5090448;28;20024;-50
2021/07/20 05:24:23;;;;;;;6.47;3.95;;;;;;;;;;5075484;28;20033;-50
2021/07/20 05:26:50;;;;;;;7.10;3.42;;;;;;;;;;5094503;28;20373;-51
2021/07/20 05:29:17;;;;;;;4.72;3.47;;;;;;;;;;5093595;28;20107;-51
2021/07/20 05:31:46;;;;;;;4.97;3.28;;;;;;;;;;5094590;28;20020;-50
2021/07/20 05:34:14;;;;;;;9.10;3.10;;;;;;;;;;5085629;28;20142;-50
2021/07/20 05:36:40;;;;;;;9.32;3.33;;;;;;;;;;5092484;28;20082;-51
2021/07/20 05:39:06;;;;;;;4.63;3.40;;;;;;;;;;5090241;28;20116;-49
2021/07/20 05:41:32;;;;;;;6.60;3.50;;;;;;;;;;5094253;28;20103;-52
2021/07/20 05:43:59;;;;;;;7.82;3.58;;;;;;;;;;5080039;28;20051;-49
2021/07/20 05:46:26;;;;;;;4.97;2.85;;;;;;;;;;5094223;28;20024;-49
2021/07/20 05:48:52;;;;;;;6.60;2.90;;;;;;;;;;5092158;28;20115;-50
2021/07/20 05:51:19;;;;;;;6.72;3.05;;;;;;;;;;5092970;28;20448;-49
2021/07/20 05:53:45;;;;;;;5.57;3.42;;;;;;;;;;5087361;28;20024;-49
2021/07/20 05:56:11;;;;;;;6.43;3.22;;;;;;;;;;5093758;28;20138;-50
2021/07/20 05:58:38;;;;;;;3.80;2.40;;;;;;;;;;5093462;28;20432;-50
2021/07/20 06:01:04;;;;;;;5.97;2.83;;;;;;;;;;5093806;28;20384;-49
2021/07/20 06:03:32;;;;;;;5.93;3.20;;;;;;;;;;5093517;28;20421;-49
2021/07/20 06:05:58;;;;;;;4.13;3.03;;;;;;;;;;5085743;28;20028;-49
2021/07/20 06:08:27;;;;;;;3.97;3.00;;;;;;;;;;5066210;28;20496;-50
2021/07/20 06:10:55;;;;;;;8.73;3.00;;;;;;;;;;5086356;28;20032;-50
2021/07/20 06:13:24;;;;;;;5.72;2.90;;;;;;;;;;5074102;28;20025;-51
2021/07/20 06:15:50;;;;;;;6.00;2.97;;;;;;;;;;5084256;28;20094;-51
2021/07/20 06:18:16;;;;;;;4.32;2.30;;;;;;;;;;5091053;28;20024;-50
2021/07/20 06:20:44;;;;;;;5.88;3.45;;;;;;;;;;5093082;28;20039;-50
2021/07/20 06:23:12;;;;;;;9.63;3.15;;;;;;;;;;5083713;28;20463;-51
2021/07/20 06:25:40;;;;;;;5.85;2.70;;;;;;;;;;5093136;28;20149;-51
2021/07/20 06:28:06;;;;;;;10.18;3.15;;;;;;;;;;5091636;28;20114;-49
2021/07/20 06:30:33;;;;;;;4.97;2.55;;;;;;;;;;5087299;28;20043;-50
2021/07/20 06:32:59;;;;;;;6.70;2.67;;;;;;;;;;5092952;28;20378;-49
2021/07/20 06:35:25;;;;;;;6.10;3.03;;;;;;;;;;5092034;28;20028;-51
2021/07/20 06:37:51;;;;;;;6.18;2.33;;;;;;;;;;5091558;28;20028;-49
2021/07/20 06:40:19;;;;;;;8.45;2.53;;;;;;;;;;5090118;28;20146;-49
2021/07/20 06:42:46;;;;;;;4.22;2.50;;;;;;;;;;5086496;28;20091;-50
2021/07/20 06:45:16;;;;;;;3.17;2.22;;;;;;;;;;5086033;28;20368;-49
2021/07/20 06:47:43;;;;;;;5.35;2.58;;;;;;;;;;5092471;28;20024;-49
2021/07/20 06:50:10;;;;;;;10.82;2.85;;;;;;;;;;5092799;28;20039;-49
2021/07/20 06:52:36;;;;;;;5.82;2.25;;;;;;;;;;5092964;28;20049;-49
2021/07/20 06:55:02;;;;;;;3.83;2.30;;;;;;;;;;5091526;28;20032;-50
2021/07/20 06:57:29;;;;;;;5.18;2.42;;;;;;;;;;5080436;28;20024;-54
2021/07/20 06:59:56;;;;;;;7.53;2.72;;;;;;;;;;5092234;28;20042;-50
2021/07/20 07:02:23;;;;;;;7.85;2.72;;;;;;;;;;5092613;28;20028;-49
2021/07/20 07:04:49;;;;;;;6.88;2.25;;;;;;;;;;5092295;28;20103;-49
2021/07/20 07:07:16;;;;;;;5.38;2.53;;;;;;;;;;5079365;28;20453;-49
2021/07/20 07:09:42;;;;;;;5.53;2.35;;;;;;;;;;5078915;28;20135;-51
2021/07/20 07:12:09;;;;;;;4.15;2.15;;;;;;;;;;5080158;28;20036;-51
2021/07/20 07:14:35;;;;;;;5.97;2.97;;;;;;;;;;5069044;28;20104;-49
2021/07/20 07:17:03;;;;;;;6.60;2.70;;;;;;;;;;5092437;28;20666;-50
2021/07/20 07:19:29;;;;;;;5.80;2.42;;;;;;;;;;5091987;28;20024;-50
2021/07/20 07:21:55;;;;;;;5.65;2.13;;;;;;;;;;5088475;28;20021;-49
2021/07/20 07:24:22;;;;;;;3.70;2.50;;;;;;;;;;5086536;28;20103;-49
2021/07/20 07:26:49;;;;;;;10.30;2.30;;;;;;;;;;5092246;28;20053;-51
2021/07/20 07:29:15;;;;;;;6.63;3.00;;;;;;;;;;5091506;28;20376;-49
2021/07/20 07:31:44;;;;;;;5.78;2.47;;;;;;;;;;5092521;28;20070;-49
2021/07/20 07:34:10;;;;;;;4.72;2.50;;;;;;;;;;5092047;28;20024;-50
2021/07/20 07:36:37;;;;;;;5.45;2.45;;;;;;;;;;5089973;28;20119;-50
2021/07/20 07:39:05;;;;;;;5.40;2.55;;;;;;;;;;5087971;28;20106;-49
2021/07/20 07:41:34;;;;;;;3.88;2.20;;;;;;;;;;5092189;28;20032;-51
2021/07/20 07:44:01;;;;;;;6.88;2.15;;;;;;;;;;5066995;28;20034;-51
2021/07/20 07:46:28;;;;;;;7.45;2.78;;;;;;;;;;5091964;28;20024;-50
2021/07/20 07:48:55;;;;;;;8.70;2.58;;;;;;;;;;5091636;28;20034;-49
2021/07/20 07:51:21;;;;;;;6.90;2.60;;;;;;;;;;5092140;28;20479;-50
2021/07/20 07:53:47;;;;;;;8.68;2.20;;;;;;;;;;5092049;28;20032;-50
2021/07/20 07:56:14;;;;;;;4.82;2.55;;;;;;;;;;5092059;28;20395;-49
2021/07/20 07:58:40;;;;;;;5.80;2.15;;;;;;;;;;5089635;28;20036;-50
2021/07/20 08:01:08;;;;;;;4.20;2.33;;;;;;;;;;5092102;28;20111;-50
2021/07/20 08:03:37;;;;;;;3.58;2.05;;;;;;;;;;5091906;28;20418;-50
2021/07/20 08:06:04;;;;;;;6.20;2.28;;;;;;;;;;5083720;28;20020;-50
2021/07/20 08:08:33;;;;;;;5.20;2.35;;;;;;;;;;5081002;28;20506;-51
2021/07/20 08:11:00;;;;;;;5.82;2.55;;;;;;;;;;5087651;28;20040;-50
2021/07/20 08:13:26;;;;;;;4.97;2.72;;;;;;;;;;5076176;28;20108;-49
2021/07/20 08:15:53;;;;;;;6.78;2.63;;;;;;;;;;5086796;28;20467;-51
2021/07/20 08:18:20;;;;;;;5.95;2.60;;;;;;;;;;5095311;28;20028;-51
2021/07/20 08:20:47;;;;;;;7.70;2.58;;;;;;;;;;5095860;28;20028;-50
2021/07/20 08:23:13;;;;;;;5.20;2.70;;;;;;;;;;5085570;28;20035;-52
2021/07/20 08:25:43;;;;;;;6.55;2.65;;;;;;;;;;5095467;28;20024;-49
2021/07/20 08:28:12;;;;;;;6.35;2.50;;;;;;;;;;5094826;28;20414;-50
2021/07/20 08:30:41;;;;;;;7.40;2.40;;;;;;;;;;5095526;28;20519;-49
2021/07/20 08:33:10;;;;;;;4.22;2.38;;;;;;;;;;5095552;28;20163;-49
2021/07/20 08:35:38;;;;;;;5.25;2.40;;;;;;;;;;5069175;28;20025;-51
2021/07/20 08:38:08;;;;;;;6.68;2.55;;;;;;;;;;5094591;28;20375;-50
2021/07/20 08:41:01;;;;;;;7.82;3.10;;;;;;;;;;5092160;28;20051;-50
2021/07/20 08:43:27;;;;;;;3.72;2.33;;;;;;;;;;5094008;28;20032;-49
2021/07/20 08:46:12;;;;;;;7.28;3.17;;;;;;;;;;5095392;28;20482;-50
2021/07/20 08:48:50;;;;;;;6.50;2.70;;;;;;;;;;5094608;28;20136;-51
2021/07/20 08:51:19;;;;;;;4.97;2.65;;;;;;;;;;5095284;28;20028;-50
2021/07/20 08:53:49;;;;;;;3.85;2.35;;;;;;;;;;5094900;28;20053;-50
2021/07/20 08:56:19;;;;;;;3.90;2.60;;;;;;;;;;5095148;28;20046;-50
2021/07/20 08:58:55;;;;;;;4.45;2.05;;;;;;;;;;5094053;28;20031;-50
2021/07/20 09:01:33;;;;;;;3.88;1.92;;;;;;;;;;5095044;28;20016;-49
2021/07/20 09:04:02;;;;;;;4.70;2.35;;;;;;;;;;5093656;28;20099;-50
2021/07/20 09:06:33;;;;;;;3.60;2.10;;;;;;;;;;5085158;28;20032;-50
2021/07/20 09:09:10;;;;;;;5.50;2.58;;;;;;;;;;5053971;28;20098;-49
2021/07/20 09:11:45;;;;;;;3.67;2.53;;;;;;;;;;5075854;28;20028;-50
2021/07/20 09:14:20;;;;;;;6.70;2.10;;;;;;;;;;5069751;28;20043;-49
2021/07/20 09:16:50;;;;;;;4.68;2.83;;;;;;;;;;5093485;28;20085;-49
2021/07/20 09:19:35;;;;;;;4.32;2.00;;;;;;;;;;5093035;28;20431;-49
2021/07/20 09:22:06;;;;;;;4.70;1.85;;;;;;;;;;5089851;28;20063;-50
2021/07/20 09:24:34;;;;;;;4.15;2.10;;;;;;;;;;5085213;28;20068;-51
2021/07/20 09:27:11;;;;;;;4.13;2.20;;;;;;;;;;5073660;28;20035;-50
2021/07/20 09:29:38;;;;;;;5.05;1.77;;;;;;;;;;5093668;28;20047;-49
2021/07/20 09:32:07;;;;;;;2.63;1.77;;;;;;;;;;5094576;28;20357;-53
2021/07/20 09:34:52;;;;;;;3.38;2.03;;;;;;;;;;5094058;28;20027;-53
2021/07/20 09:37:29;;;;;;;4.18;2.10;;;;;;;;;;5092041;28;20096;-51
2021/07/20 09:40:12;;;;;;;4.15;2.35;;;;;;;;;;5090397;28;20024;-50
2021/07/20 09:42:53;;;;;;;4.05;2.22;;;;;;;;;;5094184;28;20102;-49
2021/07/20 09:45:21;;;;;;;3.25;1.80;;;;;;;;;;5093434;28;20028;-56
2021/07/20 09:47:56;;;;;;;4.15;2.10;;;;;;;;;;5093906;28;20103;-52
2021/07/20 09:50:24;;;;;;;4.30;2.03;;;;;;;;;;5094085;28;20110;-54
2021/07/20 09:53:05;;;;;;;2.28;1.65;;;;;;;;;;5094277;28;20024;-51
2021/07/20 09:55:43;;;;;;;4.32;1.77;;;;;;;;;;5093759;28;20028;-51
2021/07/20 09:58:12;;;;;;;2.00;1.40;;;;;;;;;;5093254;28;20401;-49
2021/07/20 10:00:43;;;;;;;3.63;1.80;;;;;;;;;;5092389;28;20019;-49
2021/07/20 10:03:13;;;;;;;7.82;2.13;;;;;;;;;;5093889;28;20427;-50
2021/07/20 10:05:53;;;;;;;4.00;2.03;;;;;;;;;;5082742;28;20505;-49
2021/07/20 10:08:46;;;;;;;4.68;1.48;;;;;;;;;;5066282;28;20067;-51
2021/07/20 10:11:20;;;;;;;4.35;1.88;;;;;;;;;;5075193;28;20040;-54
2021/07/20 10:13:51;;;;;;;3.97;1.88;;;;;;;;;;5070159;28;20021;-49
2021/07/20 10:16:25;;;;;;;2.78;1.73;;;;;;;;;;5087902;28;20477;-51
2021/07/20 10:18:51;;;;;;;4.22;1.90;;;;;;;;;;5093228;28;20112;-52
2021/07/20 10:21:22;;;;;;;4.75;1.67;;;;;;;;;;5093210;28;20020;-51
2021/07/20 10:23:54;;;;;;;11.70;2.15;;;;;;;;;;5083751;28;20501;-50
2021/07/20 10:26:31;;;;;;;7.47;1.90;;;;;;;;;;5093544;28;20357;-52
2021/07/20 10:29:16;;;;;;;5.63;1.90;;;;;;;;;;5092780;28;20028;-49
2021/07/20 10:31:48;;;;;;;3.08;1.50;;;;;;;;;;5092852;28;20031;-50
2021/07/20 10:34:17;;;;;;;5.47;2.03;;;;;;;;;;5092388;28;20066;-50
2021/07/20 10:36:46;;;;;;;3.22;1.83;;;;;;;;;;5091422;28;20055;-49
2021/07/20 10:39:13;;;;;;;3.38;1.90;;;;;;;;;;5089101;28;20020;-52
2021/07/20 10:41:43;;;;;;;6.60;2.33;;;;;;;;;;5091751;28;20020;-50
2021/07/20 10:44:19;;;;;;;3.70;2.00;;;;;;;;;;5092521;28;20464;-50
2021/07/20 10:46:46;;;;;;;4.68;2.22;;;;;;;;;;5093179;28;20110;-49
2021/07/20 10:49:15;;;;;;;5.97;1.90;;;;;;;;;;5092400;28;20127;-49
2021/07/20 10:51:44;;;;;;;3.72;1.95;;;;;;;;;;5092784;28;20119;-50
2021/07/20 10:54:28;;;;;;;6.80;2.30;;;;;;;;;;5093140;28;20035;-51
2021/07/20 10:56:55;;;;;;;5.30;2.78;;;;;;;;;;5092395;28;20068;-50
2021/07/20 10:59:37;;;;;;;5.32;2.20;;;;;;;;;;5092193;28;20051;-49
2021/07/20 11:02:21;;;;;;;5.07;2.25;;;;;;;;;;5092577;28;20040;-49
2021/07/20 11:04:56;;;;;;;4.88;2.72;;;;;;;;;;5081358;28;20036;-49
2021/07/20 11:07:30;;;;;;;7.75;2.17;;;;;;;;;;5076972;28;20020;-49
2021/07/20 11:09:57;;;;;;;5.60;2.30;;;;;;;;;;5055992;28;20175;-49
2021/07/20 11:12:28;;;;;;;4.40;1.90;;;;;;;;;;5078185;28;20028;-50
2021/07/20 11:14:57;;;;;;;5.50;2.17;;;;;;;;;;5070384;28;20028;-49
2021/07/20 11:17:24;;;;;;;5.10;2.47;;;;;;;;;;5092408;28;20024;-51
2021/07/20 11:19:52;;;;;;;6.50;2.42;;;;;;;;;;5091698;28;20024;-52
2021/07/20 11:22:18;;;;;;;6.75;2.53;;;;;;;;;;5085218;28;20469;-50
2021/07/20 11:24:44;;;;;;;13.57;3.13;;;;;;;;;;5089768;28;20108;-49
2021/07/20 11:27:13;;;;;;;7.90;2.38;;;;;;;;;;5092366;28;20063;-51
2021/07/20 11:29:39;;;;;;;5.85;2.45;;;;;;;;;;5091465;28;20020;-50
2021/07/20 11:32:06;;;;;;;7.40;2.05;;;;;;;;;;5092201;28;20043;-51
2021/07/20 11:34:36;;;;;;;5.80;2.67;;;;;;;;;;5090779;28;20165;-49
2021/07/20 11:37:09;;;;;;;8.18;2.53;;;;;;;;;;5089949;28;20016;-50
2021/07/20 11:39:38;;;;;;;6.72;2.70;;;;;;;;;;5087991;28;20395;-49
2021/07/20 11:42:07;;;;;;;4.53;2.95;;;;;;;;;;5091226;28;20031;-50
2021/07/20 11:44:43;;;;;;;7.40;2.88;;;;;;;;;;5091600;28;20020;-49
2021/07/20 11:47:30;;;;;;;6.47;2.15;;;;;;;;;;5092117;28;20032;-50
2021/07/20 11:49:56;;;;;;;4.53;2.58;;;;;;;;;;5091669;28;20028;-52
2021/07/20 11:52:27;;;;;;;3.90;2.03;;;;;;;;;;5091962;28;20064;-50
2021/07/20 11:55:09;;;;;;;6.05;2.10;;;;;;;;;;5092083;28;20020;-50
2021/07/20 11:57:55;;;;;;;5.22;1.95;;;;;;;;;;5091410;28;20387;-51
2021/07/20 12:00:33;;;;;;;5.30;1.58;;;;;;;;;;5091676;28;20020;-49
2021/07/20 12:03:12;;;;;;;4.07;2.00;;;;;;;;;;5092152;28;20491;-49
2021/07/20 12:05:47;;;;;;;3.58;2.15;;;;;;;;;;5080136;28;20031;-49
2021/07/20 12:08:31;;;;;;;2.47;1.52;;;;;;;;;;5063972;28;20124;-50
2021/07/20 12:11:07;;;;;;;4.22;2.08;;;;;;;;;;5084347;28;20366;-49
2021/07/20 12:13:35;;;;;;;3.17;1.80;;;;;;;;;;5071963;28;20511;-50
2021/07/20 12:16:07;;;;;;;3.85;1.92;;;;;;;;;;5083865;28;20024;-51
2021/07/20 12:18:37;;;;;;;2.60;1.77;;;;;;;;;;5091103;28;20031;-49
2021/07/20 12:21:03;;;;;;;4.30;2.08;;;;;;;;;;5091646;28;20030;-49
2021/07/20 12:23:29;;;;;;;4.63;1.30;;;;;;;;;;5082020;28;20035;-49
2021/07/20 12:25:55;;;;;;;6.05;1.88;;;;;;;;;;5091743;28;20024;-50
2021/07/20 12:28:21;;;;;;;3.75;1.50;;;;;;;;;;5090990;28;20024;-52
2021/07/20 12:30:58;;;;;;;6.47;1.88;;;;;;;;;;5091355;28;20031;-51
2021/07/20 12:33:24;;;;;;;2.80;1.75;;;;;;;;;;5091958;28;20032;-49
2021/07/20 12:35:52;;;;;;;4.55;2.17;;;;;;;;;;5076116;28;20223;-53
2021/07/20 12:38:23;;;;;;;5.50;1.70;;;;;;;;;;5091083;28;20024;-50
2021/07/20 12:40:49;;;;;;;2.45;1.75;;;;;;;;;;5088394;28;20012;-55
2021/07/20 12:43:16;;;;;;;4.55;1.77;;;;;;;;;;5091628;28;20488;-50
2021/07/20 12:45:44;;;;;;;4.75;2.00;;;;;;;;;;5091278;28;20571;-50
2021/07/20 12:48:25;;;;;;;5.25;2.20;;;;;;;;;;5091358;28;20123;-51
2021/07/20 12:50:53;;;;;;;5.47;2.03;;;;;;;;;;5091443;28;20024;-52
2021/07/20 12:53:22;;;;;;;3.17;1.65;;;;;;;;;;5093184;28;20020;-50
2021/07/20 12:55:48;;;;;;;3.88;1.88;;;;;;;;;;5095259;28;20032;-53
2021/07/20 12:58:17;;;;;;;3.67;1.75;;;;;;;;;;5094432;28;20106;-52
2021/07/20 13:00:43;;;;;;;3.80;1.88;;;;;;;;;;5094839;28;20024;-52
2021/07/20 13:03:10;;;;;;;4.38;1.90;;;;;;;;;;5094934;28;20472;-55
2021/07/20 13:05:37;;;;;;;9.10;1.90;;;;;;;;;;5082826;28;20028;-49
2021/07/20 13:08:03;;;;;;;4.45;1.77;;;;;;;;;;5067303;28;20028;-49
2021/07/20 13:10:30;;;;;;;5.82;2.30;;;;;;;;;;5091061;28;20441;-51
2021/07/20 13:12:58;;;;;;;3.45;2.05;;;;;;;;;;5078226;28;20035;-52
2021/07/20 13:15:25;;;;;;;2.90;1.83;;;;;;;;;;5079159;28;20141;-51
2021/07/20 13:17:52;;;;;;;7.80;2.40;;;;;;;;;;5094295;28;20103;-50
2021/07/20 13:20:22;;;;;;;3.75;2.10;;;;;;;;;;5094591;28;20024;-53
2021/07/20 13:22:51;;;;;;;3.50;1.88;;;;;;;;;;5084767;28;20070;-50
2021/07/20 13:25:17;;;;;;;4.70;1.65;;;;;;;;;;5094660;28;20026;-51
2021/07/20 13:27:44;;;;;;;2.95;1.73;;;;;;;;;;5094184;28;20028;-51
2021/07/20 13:30:12;;;;;;;2.28;1.70;;;;;;;;;;5094326;28;20097;-50
2021/07/20 13:32:38;;;;;;;3.63;1.50;;;;;;;;;;5094243;28;20442;-51
2021/07/20 13:35:07;;;;;;;4.13;1.35;;;;;;;;;;5093462;28;20107;-52
2021/07/20 13:37:34;;;;;;;2.28;1.02;;;;;;;;;;5091850;28;20391;-49
2021/07/20 13:40:01;;;;;;;2.55;1.10;;;;;;;;;;5090536;28;20030;-50
2021/07/20 13:42:28;;;;;;;5.68;1.58;;;;;;;;;;5094102;28;20093;-49
2021/07/20 13:44:55;;;;;;;4.93;1.50;;;;;;;;;;5094156;28;20027;-50
2021/07/20 13:47:23;;;;;;;3.97;1.38;;;;;;;;;;5093719;28;20036;-52
2021/07/20 13:49:52;;;;;;;3.22;1.30;;;;;;;;;;5093639;28;20043;-53
2021/07/20 13:52:19;;;;;;;2.58;1.02;;;;;;;;;;5094086;28;20035;-51
2021/07/20 13:54:48;;;;;;;2.28;1.05;;;;;;;;;;5094000;28;20035;-49
2021/07/20 13:57:14;;;;;;;5.78;1.60;;;;;;;;;;5093527;28;20031;-51
2021/07/20 13:59:43;;;;;;;3.40;1.25;;;;;;;;;;5092111;28;20039;-52
2021/07/20 14:02:11;;;;;;;6.40;1.20;;;;;;;;;;5093392;28;20052;-52
2021/07/20 14:04:37;;;;;;;3.30;1.50;;;;;;;;;;5081904;28;20159;-50
2021/07/20 14:07:03;;;;;;;2.45;1.38;;;;;;;;;;5082194;28;20028;-52
2021/07/20 14:09:31;;;;;;;9.52;2.13;;;;;;;;;;5076542;28;20050;-49
2021/07/20 14:11:58;;;;;;;4.13;1.55;;;;;;;;;;5082877;28;20070;-51
2021/07/20 14:14:24;;;;;;;3.70;1.67;;;;;;;;;;5062672;28;20028;-50
2021/07/20 14:16:50;;;;;;;3.72;1.38;;;;;;;;;;5092376;28;20061;-50
2021/07/20 14:19:18;;;;;;;6.32;1.52;;;;;;;;;;5093203;28;20108;-49
2021/07/20 14:21:46;;;;;;;4.43;2.10;;;;;;;;;;5091022;28;20404;-51
2021/07/20 14:24:13;;;;;;;2.95;1.60;;;;;;;;;;5086662;28;20471;-49
2021/07/20 14:26:41;;;;;;;3.13;1.42;;;;;;;;;;5093443;28;20099;-50
2021/07/20 14:29:14;;;;;;;3.65;1.60;;;;;;;;;;5091108;28;20511;-51
2021/07/20 14:31:40;;;;;;;7.28;1.90;;;;;;;;;;5093235;28;20032;-50
2021/07/20 14:34:10;;;;;;;4.57;2.10;;;;;;;;;;5091675;28;20020;-51
2021/07/20 14:36:36;;;;;;;3.88;1.80;;;;;;;;;;5090499;28;20024;-51
2021/07/20 14:39:03;;;;;;;1.98;1.33;;;;;;;;;;5088062;28;20024;-50
2021/07/20 14:41:29;;;;;;;6.75;1.98;;;;;;;;;;5093113;28;20105;-49
2021/07/20 14:43:59;;;;;;;3.00;1.80;;;;;;;;;;5092603;28;20448;-54
2021/07/20 14:46:39;;;;;;;9.15;2.60;;;;;;;;;;5093142;28;20040;-53
2021/07/20 14:49:05;;;;;;;6.05;2.03;;;;;;;;;;5092379;28;20024;-50
2021/07/20 14:51:34;;;;;;;4.28;1.88;;;;;;;;;;5090341;28;20035;-49
2021/07/20 14:54:00;;;;;;;3.63;1.90;;;;;;;;;;5090723;28;20035;-51